Time;durP1;ratioP1;P1;durP2;ratioP2;P2;SDS_P1;SDS_P2;PMS_P1;PMS_P2;Temp;Humidity;BMP_temperature;BMP_pressure;BME280_temperature;BME280_humidity;BME280_pressure;Samples;Min_cycle;Max_cycle;Signal;HPM_P1;HPM_P2
2022/03/08 00:02:07;;;;;;;16.90;7.07;;;2.60;63.60;;;;;;5071312;28;20111;-83
2022/03/08 00:04:33;;;;;;;16.48;7.80;;;2.60;63.80;;;;;;5071467;28;20108;-82
2022/03/08 00:07:00;;;;;;;16.58;7.28;;;2.60;64.00;;;;;;5087958;28;20048;-82
2022/03/08 00:09:26;;;;;;;20.80;8.23;;;2.60;64.00;;;;;;5071742;28;20111;-82
2022/03/08 00:11:51;;;;;;;15.73;5.40;;;2.60;64.10;;;;;;5073227;28;20140;-82
2022/03/08 00:14:17;;;;;;;18.63;7.65;;;2.70;64.10;;;;;;5071631;28;20070;-82
2022/03/08 00:16:43;;;;;;;18.25;7.65;;;2.70;64.10;;;;;;5071196;28;20052;-83
2022/03/08 00:19:08;;;;;;;18.38;7.65;;;2.70;64.00;;;;;;5071333;28;20028;-83
2022/03/08 00:21:34;;;;;;;18.80;7.28;;;2.80;64.10;;;;;;5070660;28;20024;-82
2022/03/08 00:24:00;;;;;;;24.38;8.27;;;2.80;64.00;;;;;;5071042;28;20021;-81
2022/03/08 00:26:25;;;;;;;20.83;7.55;;;2.80;64.00;;;;;;5071648;28;20029;-81
2022/03/08 00:28:51;;;;;;;16.33;6.88;;;2.80;64.00;;;;;;5072661;28;20389;-81
2022/03/08 00:31:16;;;;;;;21.13;7.97;;;2.90;64.00;;;;;;5072686;28;20032;-80
2022/03/08 00:33:42;;;;;;;18.08;8.02;;;2.90;64.00;;;;;;5071260;28;20032;-82
2022/03/08 00:36:08;;;;;;;22.20;8.20;;;2.90;64.10;;;;;;5070864;28;20505;-81
2022/03/08 00:38:34;;;;;;;18.02;7.90;;;2.90;64.10;;;;;;5071982;28;20028;-82
2022/03/08 00:40:59;;;;;;;;;;;2.90;64.10;;;;;;5076434;28;20020;-82
2022/03/08 00:43:25;;;;;;;15.10;7.47;;;2.90;64.20;;;;;;5070605;28;19931;-82
2022/03/08 00:45:50;;;;;;;17.55;7.13;;;2.90;64.00;;;;;;5071393;28;20025;-82
2022/03/08 00:48:16;;;;;;;16.27;6.72;;;2.80;64.20;;;;;;5087791;28;20025;-81
2022/03/08 00:50:42;;;;;;;21.50;8.15;;;2.80;64.30;;;;;;5072044;28;20024;-82
2022/03/08 00:53:07;;;;;;;;;;;2.70;64.50;;;;;;5073119;28;20036;-82
2022/03/08 00:55:34;;;;;;;21.13;8.20;;;2.60;64.60;;;;;;5071294;28;20018;-82
2022/03/08 00:58:00;;;;;;;21.47;6.83;;;2.60;64.50;;;;;;5066941;28;20465;-82
2022/03/08 01:00:28;;;;;;;20.73;7.83;;;2.40;64.70;;;;;;5076884;28;20048;-82
2022/03/08 01:02:53;;;;;;;21.30;8.80;;;2.40;65.00;;;;;;5071274;28;20033;-81
2022/03/08 01:05:19;;;;;;;23.13;8.13;;;2.30;65.20;;;;;;5070776;28;20469;-81
2022/03/08 01:07:45;;;;;;;;;;;2.20;65.50;;;;;;5071557;28;20361;-82
2022/03/08 01:10:15;;;;;;;14.87;5.40;;;2.10;65.70;;;;;;5072003;28;20075;-84
2022/03/08 01:12:41;;;;;;;17.10;7.63;;;2.00;65.50;;;;;;5074442;28;20049;-82
2022/03/08 01:15:09;;;;;;;24.80;7.83;;;1.90;65.80;;;;;;5072066;28;20028;-81
2022/03/08 01:17:35;;;;;;;19.40;7.80;;;1.80;66.00;;;;;;5070615;28;20048;-82
2022/03/08 01:20:00;;;;;;;;;;;1.80;66.20;;;;;;5071498;28;20031;-81
2022/03/08 01:22:26;;;;;;;20.50;7.13;;;1.70;66.50;;;;;;5071033;28;20075;-83
2022/03/08 01:24:53;;;;;;;17.92;7.28;;;1.60;66.50;;;;;;5070528;28;20020;-82
2022/03/08 01:27:19;;;;;;;20.43;8.30;;;1.60;66.60;;;;;;5070806;28;20077;-83
2022/03/08 01:29:44;;;;;;;;;;;1.50;66.90;;;;;;5071032;28;20141;-82
2022/03/08 01:32:10;;;;;;;16.53;6.97;;;1.40;67.20;;;;;;5070693;28;20003;-82
2022/03/08 01:34:36;;;;;;;20.42;7.45;;;1.40;67.20;;;;;;5070482;28;20439;-82
2022/03/08 01:37:03;;;;;;;;;;;1.30;67.40;;;;;;5072783;28;20381;-81
2022/03/08 01:39:28;;;;;;;16.48;6.40;;;1.30;67.50;;;;;;5070782;28;19922;-82
2022/03/08 01:41:54;;;;;;;;;;;1.30;67.50;;;;;;5070809;28;20473;-82
2022/03/08 01:44:19;;;;;;;18.37;7.03;;;1.20;67.70;;;;;;5070530;28;19986;-82
2022/03/08 01:46:45;;;;;;;;;;;1.20;67.80;;;;;;5071151;28;20024;-82
2022/03/08 01:49:11;;;;;;;8.60;4.70;;;1.10;68.00;;;;;;5070478;28;20261;-83
2022/03/08 01:51:39;;;;;;;18.80;7.57;;;1.10;68.10;;;;;;5070638;28;20024;-83
2022/03/08 01:54:06;;;;;;;21.27;8.07;;;1.00;68.30;;;;;;5071072;28;20028;-83
2022/03/08 01:56:33;;;;;;;18.63;7.40;;;0.90;68.40;;;;;;5073966;28;20051;-83
2022/03/08 01:58:59;;;;;;;23.63;6.93;;;0.90;68.50;;;;;;5073495;28;20086;-82
2022/03/08 02:01:25;;;;;;;18.63;7.57;;;0.90;68.70;;;;;;5073713;28;20469;-82
2022/03/08 02:03:51;;;;;;;19.38;7.15;;;0.90;68.60;;;;;;5090768;28;20082;-82
2022/03/08 02:06:16;;;;;;;;;;;0.80;68.80;;;;;;5091329;28;20021;-83
2022/03/08 02:08:42;;;;;;;16.93;6.83;;;0.80;68.70;;;;;;5074375;28;20308;-81
2022/03/08 02:11:08;;;;;;;18.75;7.13;;;0.80;68.60;;;;;;5073601;28;20808;-82
2022/03/08 02:13:33;;;;;;;20.17;7.18;;;0.70;68.60;;;;;;5073354;28;20034;-82
2022/03/08 02:15:59;;;;;;;;;;;0.70;68.70;;;;;;5075260;28;20103;-82
2022/03/08 02:18:24;;;;;;;14.00;6.43;;;0.60;68.70;;;;;;5073495;28;19920;-83
2022/03/08 02:20:50;;;;;;;17.63;6.68;;;0.60;68.40;;;;;;5073726;28;20499;-83
2022/03/08 02:23:16;;;;;;;;;;;0.50;68.50;;;;;;5075540;28;20436;-82
2022/03/08 02:25:42;;;;;;;21.30;7.13;;;0.50;68.60;;;;;;5090298;28;19940;-83
2022/03/08 02:28:07;;;;;;;;;;;0.50;68.40;;;;;;5073835;28;20021;-83
2022/03/08 02:30:33;;;;;;;23.57;8.50;;;0.40;68.50;;;;;;5074729;28;19973;-83
2022/03/08 02:32:59;;;;;;;27.53;8.73;;;0.40;68.30;;;;;;5070598;28;20039;-82
2022/03/08 02:35:28;;;;;;;21.40;8.45;;;0.30;68.50;;;;;;5073897;28;20129;-82
2022/03/08 02:37:57;;;;;;;21.80;8.83;;;0.20;68.70;;;;;;5073537;28;20473;-83
2022/03/08 02:40:28;;;;;;;27.47;9.03;;;0.10;68.80;;;;;;5073162;28;20033;-82
2022/03/08 02:42:54;;;;;;;23.67;9.13;;;0.10;69.00;;;;;;5074531;28;20020;-82
2022/03/08 02:45:19;;;;;;;;;;;0.10;69.10;;;;;;5073269;28;20488;-81
2022/03/08 02:47:45;;;;;;;26.03;9.53;;;0.00;69.20;;;;;;5072564;28;20341;-82
2022/03/08 02:50:14;;;;;;;27.38;8.98;;;0.00;68.80;;;;;;5073088;28;20036;-82
2022/03/08 02:52:44;;;;;;;25.87;8.77;;;0.00;69.00;;;;;;5073249;28;20024;-82
2022/03/08 02:55:14;;;;;;;26.27;9.83;;;0.00;69.30;;;;;;5073056;28;20051;-83
2022/03/08 02:57:41;;;;;;;23.87;8.47;;;0.00;69.30;;;;;;5073264;28;20027;-81
2022/03/08 03:00:09;;;;;;;30.27;10.20;;;-3276.70;69.50;;;;;;5072391;28;20024;-82
2022/03/08 03:02:35;;;;;;;24.93;9.60;;;-3276.70;69.60;;;;;;5074165;28;20093;-82
2022/03/08 03:05:00;;;;;;;;;;;-3276.60;69.60;;;;;;5072575;28;20021;-82
2022/03/08 03:07:26;;;;;;;13.07;4.00;;;-3276.60;69.70;;;;;;5072748;28;19974;-81
2022/03/08 03:09:52;;;;;;;18.17;7.78;;;-3276.60;69.30;;;;;;5089766;28;20028;-81
2022/03/08 03:12:18;;;;;;;;;;;-3276.70;69.60;;;;;;5073375;28;20086;-83
2022/03/08 03:14:44;;;;;;;27.17;8.40;;;-3276.70;69.60;;;;;;5074123;28;19909;-82
2022/03/08 03:17:09;;;;;;;;;;;-3276.70;69.30;;;;;;5072967;28;20127;-82
2022/03/08 03:19:36;;;;;;;24.37;8.43;;;-3276.60;69.40;;;;;;5073640;28;19912;-81
2022/03/08 03:22:02;;;;;;;24.17;9.20;;;-3276.60;69.20;;;;;;5073292;28;20037;-82
2022/03/08 03:24:27;;;;;;;22.07;8.13;;;-3276.50;69.30;;;;;;5072347;28;20028;-82
2022/03/08 03:26:53;;;;;;;;;;;-3276.50;69.50;;;;;;5073471;28;20457;-81
2022/03/08 03:29:18;;;;;;;24.33;9.53;;;-3276.50;69.70;;;;;;5073468;28;19909;-82
2022/03/08 03:31:44;;;;;;;21.48;8.15;;;-3276.50;69.40;;;;;;5089200;28;20032;-82
2022/03/08 03:34:09;;;;;;;20.05;9.10;;;-3276.40;69.60;;;;;;5072546;28;20024;-82
2022/03/08 03:36:36;;;;;;;;;;;-3276.40;69.70;;;;;;5073994;28;20485;-82
2022/03/08 03:39:02;;;;;;;18.90;7.73;;;-3276.40;69.90;;;;;;5072754;28;19919;-83
2022/03/08 03:41:27;;;;;;;22.67;8.63;;;-3276.40;69.60;;;;;;5072785;28;20530;-83
2022/03/08 03:43:54;;;;;;;;;;;-3276.40;69.80;;;;;;5073868;28;20051;-82
2022/03/08 03:46:19;;;;;;;14.57;7.10;;;-3276.40;69.90;;;;;;5071071;28;19914;-83
2022/03/08 03:48:45;;;;;;;;;;;-3276.40;69.70;;;;;;5071872;28;20520;-82
2022/03/08 03:51:11;;;;;;;21.40;8.13;;;-3276.40;69.90;;;;;;5071416;28;19908;-82
2022/03/08 03:53:36;;;;;;;19.50;8.47;;;-3276.40;69.60;;;;;;5071524;28;20070;-82
2022/03/08 03:56:02;;;;;;;;;;;-3276.30;69.80;;;;;;5071782;28;20033;-82
2022/03/08 03:58:28;;;;;;;24.87;8.20;;;-3276.30;69.90;;;;;;5105469;28;20368;-82
2022/03/08 04:00:53;;;;;;;;;;;-3276.30;69.70;;;;;;5071687;28;20013;-83
2022/03/08 04:03:19;;;;;;;18.47;8.40;;;-3276.30;69.80;;;;;;5071529;28;19916;-83
2022/03/08 04:05:45;;;;;;;23.13;9.93;;;-3276.40;69.60;;;;;;5072088;28;20074;-82
2022/03/08 04:08:11;;;;;;;17.77;7.93;;;-3276.50;69.70;;;;;;5073150;28;20043;-82
2022/03/08 04:10:37;;;;;;;19.93;9.87;;;-3276.70;69.60;;;;;;5071984;28;20417;-82
2022/03/08 04:13:03;;;;;;;28.90;9.37;;;-3276.70;69.60;;;;;;5089702;28;20393;-83
2022/03/08 04:15:29;;;;;;;;;;;0.00;69.50;;;;;;5074438;28;20067;-83
2022/03/08 04:17:54;;;;;;;19.07;9.07;;;0.00;69.50;;;;;;5070486;28;19916;-82
2022/03/08 04:20:20;;;;;;;;;;;0.10;69.10;;;;;;5071311;28;20023;-82
2022/03/08 04:22:45;;;;;;;23.03;9.90;;;0.10;69.20;;;;;;5070944;28;19908;-82
2022/03/08 04:25:11;;;;;;;;;;;0.10;69.00;;;;;;5072024;28;20063;-82
2022/03/08 04:27:37;;;;;;;26.17;10.83;;;0.10;69.30;;;;;;5087121;28;19918;-82
2022/03/08 04:30:05;;;;;;;24.60;10.73;;;0.10;69.10;;;;;;5070891;28;20028;-81
2022/03/08 04:32:30;;;;;;;25.43;11.90;;;0.10;69.40;;;;;;5070700;28;20055;-83
2022/03/08 04:34:56;;;;;;;;;;;0.10;69.50;;;;;;5072355;28;20485;-82
2022/03/08 04:37:22;;;;;;;26.87;11.00;;;0.10;69.70;;;;;;5070433;28;19923;-83
2022/03/08 04:39:47;;;;;;;;;;;0.20;69.30;;;;;;5070871;28;20016;-82
2022/03/08 04:42:13;;;;;;;27.40;10.60;;;0.20;69.50;;;;;;5071601;28;19915;-83
2022/03/08 04:44:38;;;;;;;;;;;0.20;69.20;;;;;;5070973;28;20055;-82
2022/03/08 04:47:04;;;;;;;36.67;11.30;;;0.20;69.40;;;;;;5070760;28;20353;-82
2022/03/08 04:49:30;;;;;;;29.33;11.43;;;0.20;69.10;;;;;;5070248;28;20021;-82
2022/03/08 04:51:55;;;;;;;23.80;11.23;;;0.10;69.40;;;;;;5070156;28;20023;-82
2022/03/08 04:54:21;;;;;;;35.28;12.30;;;0.00;69.60;;;;;;5070375;28;20493;-82
2022/03/08 04:56:46;;;;;;;34.83;12.27;;;0.00;69.70;;;;;;5070972;28;20059;-82
2022/03/08 04:59:12;;;;;;;36.47;13.13;;;0.00;69.80;;;;;;5070839;28;20489;-82
2022/03/08 05:01:37;;;;;;;35.10;14.57;;;0.00;69.90;;;;;;5070754;28;20024;-83
2022/03/08 05:04:03;;;;;;;38.33;13.63;;;0.00;69.90;;;;;;5069569;28;20466;-82
2022/03/08 05:06:30;;;;;;;33.25;13.18;;;0.10;69.90;;;;;;5071173;28;20024;-82
2022/03/08 05:08:56;;;;;;;36.10;14.43;;;0.20;69.90;;;;;;5072621;28;20028;-82
2022/03/08 05:11:21;;;;;;;;;;;0.30;69.80;;;;;;5071123;28;20050;-83
2022/03/08 05:13:47;;;;;;;35.40;13.43;;;0.50;69.80;;;;;;5071366;28;19908;-83
2022/03/08 05:16:13;;;;;;;29.30;13.75;;;0.60;69.30;;;;;;5072330;28;20468;-83
2022/03/08 05:18:38;;;;;;;;;;;0.70;69.30;;;;;;5073342;28;20036;-82
2022/03/08 05:21:04;;;;;;;81.53;26.97;;;0.80;69.30;;;;;;5071579;28;19919;-82
2022/03/08 05:23:29;;;;;;;47.97;18.38;;;0.80;68.90;;;;;;5070957;28;20029;-82
2022/03/08 05:25:55;;;;;;;32.80;14.50;;;0.90;69.00;;;;;;5071323;28;20054;-82
2022/03/08 05:28:20;;;;;;;;;;;0.90;69.00;;;;;;5073045;28;20367;-82
2022/03/08 05:30:46;;;;;;;30.83;12.13;;;1.00;69.10;;;;;;5075988;28;19908;-82
2022/03/08 05:33:11;;;;;;;30.55;11.95;;;1.20;68.70;;;;;;5075399;28;20493;-82
2022/03/08 05:35:39;;;;;;;27.70;12.80;;;1.20;68.80;;;;;;5074651;28;20108;-82
2022/03/08 05:38:05;;;;;;;31.90;13.33;;;1.20;68.90;;;;;;5075021;28;20020;-82
2022/03/08 05:40:30;;;;;;;31.65;12.20;;;1.30;69.10;;;;;;5075889;28;20098;-83
2022/03/08 05:42:58;;;;;;;;;;;1.30;69.20;;;;;;5075257;28;20374;-83
2022/03/08 05:45:24;;;;;;;30.03;10.87;;;1.30;69.20;;;;;;5074237;28;19916;-82
2022/03/08 05:47:49;;;;;;;43.30;14.90;;;1.40;69.00;;;;;;5073877;28;20028;-83
2022/03/08 05:50:15;;;;;;;56.15;19.40;;;1.40;69.10;;;;;;5074357;28;20389;-83
2022/03/08 05:52:41;;;;;;;;;;;1.40;69.20;;;;;;5075771;28;20404;-82
2022/03/08 05:55:07;;;;;;;44.93;14.47;;;1.40;69.30;;;;;;5075046;28;19920;-82
2022/03/08 05:57:33;;;;;;;53.40;16.60;;;1.40;69.10;;;;;;5074007;28;20021;-82
2022/03/08 05:59:59;;;;;;;48.28;15.15;;;1.40;69.30;;;;;;5074647;28;20470;-83
2022/03/08 06:02:24;;;;;;;40.30;14.15;;;1.40;69.50;;;;;;5074720;28;20081;-83
2022/03/08 06:04:50;;;;;;;59.72;16.88;;;1.40;69.60;;;;;;5073673;28;20070;-82
2022/03/08 06:07:16;;;;;;;42.38;15.57;;;1.40;69.60;;;;;;5074452;28;20052;-81
2022/03/08 06:09:41;;;;;;;50.45;15.77;;;1.40;69.50;;;;;;5073996;28;20032;-83
2022/03/08 06:12:08;;;;;;;33.20;12.98;;;1.50;69.40;;;;;;5073084;28;20016;-83
2022/03/08 06:14:33;;;;;;;33.83;13.13;;;1.50;69.50;;;;;;5075592;28;20442;-81
2022/03/08 06:16:59;;;;;;;30.05;13.20;;;1.40;69.50;;;;;;5073846;28;20044;-82
2022/03/08 06:19:24;;;;;;;31.13;12.57;;;1.50;69.60;;;;;;5073830;28;20105;-81
2022/03/08 06:21:51;;;;;;;24.80;10.90;;;1.60;69.50;;;;;;5078516;28;20025;-81
2022/03/08 06:24:17;;;;;;;23.50;11.93;;;1.70;69.30;;;;;;5075720;28;20522;-82
2022/03/08 06:26:42;;;;;;;32.63;11.80;;;1.80;69.20;;;;;;5073932;28;20025;-82
2022/03/08 06:29:09;;;;;;;32.30;11.85;;;1.90;69.00;;;;;;5073012;28;20052;-83
2022/03/08 06:31:35;;;;;;;30.70;11.85;;;1.90;68.80;;;;;;5073836;28;20028;-83
2022/03/08 06:34:01;;;;;;;37.03;13.47;;;2.10;68.70;;;;;;5073560;28;20024;-82
2022/03/08 06:36:26;;;;;;;30.60;13.15;;;2.10;68.60;;;;;;5072741;28;20123;-82
2022/03/08 06:38:52;;;;;;;31.55;11.68;;;2.20;68.50;;;;;;5092437;28;20036;-82
2022/03/08 06:41:17;;;;;;;27.67;11.88;;;2.20;68.30;;;;;;5072139;28;20528;-82
2022/03/08 06:43:43;;;;;;;26.05;12.38;;;2.30;68.30;;;;;;5073324;28;20023;-82
2022/03/08 06:46:09;;;;;;;;;;;2.30;68.20;;;;;;5073822;28;20029;-83
2022/03/08 06:51:54;;;;;;;28.63;12.10;;;2.50;67.70;;;;;;5031331;28;20028;-82
2022/03/08 06:54:19;;;;;;;33.40;12.87;;;2.60;67.60;;;;;;5074441;28;20477;-82
2022/03/08 06:56:45;;;;;;;25.85;12.07;;;2.70;67.50;;;;;;5075379;28;20017;-83
2022/03/08 06:59:10;;;;;;;;;;;2.70;67.40;;;;;;5075708;28;20029;-82
2022/03/08 07:01:36;;;;;;;25.60;11.50;;;2.80;67.40;;;;;;5091011;28;19909;-83
2022/03/08 07:04:01;;;;;;;29.30;12.52;;;2.80;67.00;;;;;;5074111;28;20487;-82
2022/03/08 07:06:27;;;;;;;33.22;13.30;;;2.90;67.00;;;;;;5074062;28;20020;-82
2022/03/08 07:08:53;;;;;;;36.13;14.55;;;2.90;66.90;;;;;;5073900;28;20032;-83
2022/03/08 07:11:19;;;;;;;;;;;3.10;66.80;;;;;;5074110;28;20029;-83
2022/03/08 07:13:44;;;;;;;31.17;14.13;;;3.10;66.80;;;;;;5107675;28;19908;-84
2022/03/08 07:16:10;;;;;;;57.03;18.02;;;3.30;66.40;;;;;;5073459;28;20028;-83
2022/03/08 07:18:36;;;;;;;61.97;18.50;;;3.30;66.30;;;;;;5073147;28;20040;-80
2022/03/08 07:21:03;;;;;;;;;;;3.30;66.30;;;;;;5074882;28;20024;-88
2022/03/08 07:23:29;;;;;;;;;;;3.40;66.30;;;;;;5075707;28;19917;-88
2022/03/08 07:25:55;;;;;;;35.80;14.77;;;3.40;66.00;;;;;;5076299;28;19916;-88
2022/03/08 07:28:20;;;;;;;34.75;13.15;;;3.30;65.80;;;;;;5075681;28;20025;-87
2022/03/08 07:30:46;;;;;;;28.63;12.00;;;3.40;66.00;;;;;;5074790;28;20024;-88
2022/03/08 07:33:11;;;;;;;28.38;10.07;;;3.40;65.90;;;;;;5083514;28;20566;-88
2022/03/08 07:35:37;;;;;;;29.98;12.20;;;3.40;65.90;;;;;;5077919;28;20128;-88
2022/03/08 07:38:03;;;;;;;32.90;13.27;;;3.40;65.80;;;;;;5077045;28;20032;-87
2022/03/08 07:40:28;;;;;;;33.83;11.93;;;3.50;65.70;;;;;;5084088;28;20032;-88
2022/03/08 07:42:54;;;;;;;;;;;3.60;65.60;;;;;;5075804;28;20032;-88
2022/03/08 07:45:19;;;;;;;32.60;13.63;;;3.60;65.50;;;;;;5077326;28;19919;-88
2022/03/08 07:47:45;;;;;;;;;;;3.70;65.30;;;;;;5075744;28;20054;-87
2022/03/08 07:50:11;;;;;;;34.47;13.07;;;3.80;65.40;;;;;;5075625;28;19954;-87
2022/03/08 07:52:36;;;;;;;57.25;22.88;;;3.80;65.10;;;;;;5073060;28;20115;-89
2022/03/08 07:55:03;;;;;;;47.83;18.95;;;4.00;65.10;;;;;;5076162;28;20021;-87
2022/03/08 07:57:28;;;;;;;25.53;11.03;;;4.20;65.00;;;;;;5074321;28;20028;-88
2022/03/08 07:59:54;;;;;;;34.10;13.45;;;4.40;64.70;;;;;;5073925;28;20027;-87
2022/03/08 08:02:20;;;;;;;26.92;12.20;;;4.60;64.30;;;;;;5074191;28;20099;-88
2022/03/08 08:04:45;;;;;;;31.88;13.52;;;4.60;63.90;;;;;;5074025;28;20025;-87
2022/03/08 08:07:11;;;;;;;23.67;11.23;;;4.60;63.80;;;;;;5074918;28;20056;-87
2022/03/08 08:09:37;;;;;;;;;;;4.80;63.70;;;;;;5074631;28;20393;-88
2022/03/08 08:12:03;;;;;;;23.87;11.00;;;4.80;63.50;;;;;;5073495;28;19919;-87
2022/03/08 08:14:28;;;;;;;;;;;4.80;63.20;;;;;;5074444;28;20028;-88
2022/03/08 08:16:54;;;;;;;22.90;9.47;;;4.80;63.30;;;;;;5074083;28;20003;-87
2022/03/08 08:19:19;;;;;;;24.60;11.57;;;4.80;63.10;;;;;;5076104;28;20366;-87
2022/03/08 08:21:46;;;;;;;30.33;11.83;;;4.90;63.00;;;;;;5074546;28;20135;-88
2022/03/08 08:24:12;;;;;;;23.98;10.32;;;4.90;62.70;;;;;;5075898;28;20036;-87
2022/03/08 08:26:37;;;;;;;25.85;10.75;;;4.90;62.70;;;;;;5074403;28;20028;-88
2022/03/08 08:29:03;;;;;;;22.70;11.53;;;5.00;62.50;;;;;;5076350;28;20026;-88
2022/03/08 08:31:31;;;;;;;21.60;10.80;;;5.20;62.30;;;;;;5073931;28;20024;-88
2022/03/08 08:33:56;;;;;;;21.67;9.57;;;5.30;62.10;;;;;;5075017;28;20079;-88
2022/03/08 08:36:22;;;;;;;23.90;9.18;;;5.40;61.50;;;;;;5057916;28;20037;-88
2022/03/08 08:38:48;;;;;;;20.73;8.43;;;5.50;61.30;;;;;;5073259;28;20393;-88
2022/03/08 08:41:13;;;;;;;18.35;8.68;;;5.60;61.10;;;;;;5073235;28;20024;-87
2022/03/08 08:43:39;;;;;;;19.90;9.90;;;5.70;60.90;;;;;;5074676;28;20485;-86
2022/03/08 08:46:04;;;;;;;24.40;10.23;;;5.80;60.60;;;;;;5074458;28;20122;-87
2022/03/08 08:48:30;;;;;;;34.97;13.93;;;5.80;60.40;;;;;;5074316;28;20024;-87
2022/03/08 08:50:56;;;;;;;17.75;8.50;;;5.80;60.20;;;;;;5078809;28;20455;-87
2022/03/08 08:53:22;;;;;;;18.10;8.73;;;5.90;60.00;;;;;;5074050;28;20119;-88
2022/03/08 08:55:49;;;;;;;16.37;8.90;;;6.00;59.70;;;;;;5074529;28;20055;-85
2022/03/08 08:58:15;;;;;;;17.90;8.50;;;6.00;59.40;;;;;;5074077;28;20024;-88
2022/03/08 09:00:41;;;;;;;20.92;8.85;;;6.10;59.10;;;;;;5074787;28;20035;-88
2022/03/08 09:03:10;;;;;;;;;;;6.10;58.90;;;;;;5075134;28;20051;-88
2022/03/08 09:05:36;;;;;;;16.97;7.87;;;6.20;58.90;;;;;;5077200;28;19917;-87
2022/03/08 09:08:02;;;;;;;23.20;9.13;;;6.30;58.50;;;;;;5079021;28;20031;-87
2022/03/08 09:10:28;;;;;;;21.27;8.90;;;6.40;58.10;;;;;;5080950;28;20028;-87
2022/03/08 09:12:53;;;;;;;21.30;9.75;;;6.50;57.90;;;;;;5087837;28;20025;-87
2022/03/08 09:15:21;;;;;;;17.05;8.38;;;6.60;57.70;;;;;;5078611;28;20082;-86
2022/03/08 09:17:47;;;;;;;17.27;7.90;;;6.80;57.20;;;;;;5078970;28;20040;-87
2022/03/08 09:20:13;;;;;;;15.85;6.85;;;6.80;56.70;;;;;;5080308;28;20032;-87
2022/03/08 09:22:39;;;;;;;;;;;6.90;56.10;;;;;;5084024;28;20025;-87
2022/03/08 09:25:06;;;;;;;13.77;7.17;;;7.00;56.10;;;;;;5076739;28;19995;-87
2022/03/08 09:27:34;;;;;;;14.73;7.37;;;7.30;55.70;;;;;;5078459;28;20078;-87
2022/03/08 09:30:00;;;;;;;14.13;7.20;;;7.40;55.00;;;;;;5097756;28;20032;-86
2022/03/08 09:32:25;;;;;;;16.07;7.50;;;7.50;54.40;;;;;;5078158;28;20028;-87
2022/03/08 09:34:51;;;;;;;15.38;7.63;;;7.50;54.20;;;;;;5095335;28;20139;-88
2022/03/08 09:37:16;;;;;;;15.70;7.88;;;7.50;53.90;;;;;;5078223;28;20016;-88
2022/03/08 09:39:42;;;;;;;;;;;7.40;53.60;;;;;;5079375;28;20040;-87
2022/03/08 09:42:08;;;;;;;15.93;7.30;;;7.40;54.00;;;;;;5077458;28;20315;-88
2022/03/08 09:44:33;;;;;;;;;;;7.30;53.90;;;;;;5083056;28;20468;-87
2022/03/08 09:47:00;;;;;;;14.37;6.37;;;7.30;54.00;;;;;;5076742;28;19914;-87
2022/03/08 09:49:25;;;;;;;12.10;6.13;;;7.30;53.90;;;;;;5077307;28;20079;-88
2022/03/08 09:51:52;;;;;;;14.55;6.47;;;7.40;53.40;;;;;;5107818;28;20028;-87
2022/03/08 09:54:18;;;;;;;13.20;6.30;;;7.60;52.70;;;;;;5078887;28;20028;-86
2022/03/08 09:56:44;;;;;;;13.43;7.32;;;7.70;52.40;;;;;;5076807;28;20043;-85
2022/03/08 09:59:09;;;;;;;;;;;7.80;52.30;;;;;;5077323;28;20016;-87
2022/03/08 10:01:35;;;;;;;15.43;6.17;;;7.90;52.20;;;;;;5076747;28;19985;-87
2022/03/08 10:04:01;;;;;;;17.47;6.97;;;8.10;51.80;;;;;;5075058;28;20020;-86
2022/03/08 10:06:40;;;;;;;;;;;8.20;51.60;;;;;;5076579;28;20487;-86
2022/03/08 10:09:11;;;;;;;12.10;5.37;;;8.30;51.20;;;;;;5075255;28;19950;-86
2022/03/08 10:11:38;;;;;;;11.03;4.50;;;8.30;50.50;;;;;;5075758;28;20021;-87
2022/03/08 10:14:04;;;;;;;14.60;5.93;;;8.40;50.10;;;;;;5075730;28;20146;-86
2022/03/08 10:16:41;;;;;;;;;;;8.60;49.80;;;;;;5091796;28;20084;-86
2022/03/08 10:19:08;;;;;;;;;;;8.80;49.80;;;;;;5075954;28;20007;-87
2022/03/08 10:21:37;;;;;;;8.38;4.03;;;9.20;49.20;;;;;;5075940;28;19908;-87
2022/03/08 10:24:05;;;;;;;8.87;4.73;;;9.50;48.40;;;;;;5075149;28;20481;-84
2022/03/08 10:26:41;;;;;;;7.90;4.40;;;10.20;47.10;;;;;;5074579;28;20024;-85
2022/03/08 10:29:07;;;;;;;9.65;4.65;;;10.20;46.00;;;;;;5075413;28;20029;-86
2022/03/08 10:31:32;;;;;;;;;;;10.10;46.30;;;;;;5075640;28;20024;-86
2022/03/08 10:34:09;;;;;;;9.52;5.85;;;10.70;46.10;;;;;;5075224;28;19905;-85
2022/03/08 10:36:36;;;;;;;9.82;4.93;;;12.20;43.80;;;;;;5074918;28;20078;-85
2022/03/08 10:39:02;;;;;;;12.68;5.43;;;12.70;42.80;;;;;;5081922;28;20028;-86
2022/03/08 10:41:27;;;;;;;;;;;12.50;42.80;;;;;;5076534;28;20031;-86
2022/03/08 10:43:56;;;;;;;8.50;4.70;;;12.00;43.80;;;;;;5076798;28;19909;-86
2022/03/08 10:46:21;;;;;;;8.85;5.20;;;11.70;43.80;;;;;;5079524;28;20025;-86
2022/03/08 10:48:47;;;;;;;;;;;11.40;44.00;;;;;;5076580;28;20415;-86
2022/03/08 10:51:14;;;;;;;10.38;5.50;;;11.30;44.50;;;;;;5074962;28;19904;-85
2022/03/08 10:53:43;;;;;;;9.15;5.30;;;11.30;44.00;;;;;;5075427;28;20036;-86
2022/03/08 10:56:10;;;;;;;12.68;5.60;;;11.20;43.70;;;;;;5075235;28;20033;-87
2022/03/08 10:58:51;;;;;;;9.00;4.50;;;10.90;43.70;;;;;;5075237;28;20162;-87
2022/03/08 11:01:17;;;;;;;9.52;5.10;;;11.10;43.20;;;;;;5075519;28;20020;-87
2022/03/08 11:03:56;;;;;;;;;;;11.60;42.70;;;;;;5075944;28;20112;-86
2022/03/08 11:06:23;;;;;;;10.02;4.70;;;12.30;41.70;;;;;;5092047;28;20012;-86
2022/03/08 11:08:49;;;;;;;9.43;4.72;;;12.80;40.30;;;;;;5074763;28;20020;-86
2022/03/08 11:11:14;;;;;;;;;;;13.00;40.00;;;;;;5074992;28;20098;-86
2022/03/08 11:13:40;;;;;;;9.55;4.32;;;13.40;40.30;;;;;;5075825;28;19991;-86
2022/03/08 11:16:07;;;;;;;8.93;3.55;;;13.50;39.70;;;;;;5074177;28;20024;-87
2022/03/08 11:18:33;;;;;;;6.13;3.85;;;13.50;38.40;;;;;;5074463;28;20055;-87
2022/03/08 11:21:00;;;;;;;7.15;3.60;;;13.50;37.90;;;;;;5090961;28;20025;-85
2022/03/08 11:23:26;;;;;;;7.15;3.35;;;14.20;37.30;;;;;;5074503;28;20032;-86
2022/03/08 11:25:52;;;;;;;6.30;3.55;;;14.30;36.90;;;;;;5075554;28;20013;-87
2022/03/08 11:28:19;;;;;;;;;;;14.10;36.80;;;;;;5075872;28;20027;-86
2022/03/08 11:30:46;;;;;;;;;;;14.30;37.00;;;;;;5076920;28;19955;-86
2022/03/08 11:33:19;;;;;;;7.47;3.40;;;14.60;37.10;;;;;;5092144;28;19912;-86
2022/03/08 11:36:13;;;;;;;6.30;3.67;;;14.40;35.90;;;;;;5075737;28;20037;-86
2022/03/08 11:38:39;;;;;;;9.15;3.92;;;13.80;35.40;;;;;;5068085;28;20119;-87
2022/03/08 11:41:04;;;;;;;;;;;13.30;36.10;;;;;;5091035;28;20114;-86
2022/03/08 11:43:45;;;;;;;7.20;3.45;;;14.00;36.00;;;;;;5073886;28;20361;-87
2022/03/08 11:46:19;;;;;;;5.97;3.15;;;16.00;33.50;;;;;;5063655;28;20051;-87
2022/03/08 11:48:57;;;;;;;7.60;3.42;;;18.00;31.10;;;;;;5075082;28;20028;-85
2022/03/08 11:51:24;;;;;;;7.25;3.75;;;19.20;29.50;;;;;;5073406;28;20469;-87
2022/03/08 11:54:24;;;;;;;7.25;3.88;;;19.10;29.60;;;;;;5073668;28;20028;-87
2022/03/08 11:56:52;;;;;;;7.80;4.10;;;17.90;30.20;;;;;;5067273;28;20024;-87
2022/03/08 11:59:18;;;;;;;8.02;4.10;;;16.90;31.50;;;;;;5091130;28;20025;-87
2022/03/08 12:01:44;;;;;;;7.50;4.15;;;16.10;32.30;;;;;;5075226;28;20147;-86
2022/03/08 12:04:16;;;;;;;6.38;3.67;;;15.50;32.70;;;;;;5073488;28;20071;-87
2022/03/08 12:06:54;;;;;;;6.82;3.53;;;15.80;32.50;;;;;;5067216;28;20092;-87
2022/03/08 12:09:21;;;;;;;9.45;3.67;;;17.60;30.60;;;;;;5073727;28;20032;-86
2022/03/08 12:12:03;;;;;;;8.60;3.58;;;19.30;28.90;;;;;;5075250;28;20059;-87
2022/03/08 12:14:40;;;;;;;5.75;3.13;;;19.60;27.80;;;;;;5073691;28;20024;-87
2022/03/08 12:17:14;;;;;;;7.93;3.17;;;19.10;28.00;;;;;;5073685;28;20508;-87
2022/03/08 12:19:43;;;;;;;6.40;3.53;;;18.90;27.60;;;;;;5074724;28;20025;-87
2022/03/08 12:22:33;;;;;;;6.80;3.60;;;19.60;26.90;;;;;;5074575;28;20020;-88
2022/03/08 12:24:59;;;;;;;5.63;3.75;;;20.70;26.00;;;;;;5068125;28;20024;-87
2022/03/08 12:27:46;;;;;;;8.65;4.18;;;22.00;25.00;;;;;;5074948;28;20046;-86
2022/03/08 12:30:12;;;;;;;7.47;3.90;;;23.40;23.70;;;;;;5065507;28;20031;-85
2022/03/08 12:32:44;;;;;;;8.70;3.50;;;24.50;23.10;;;;;;5072660;28;20455;-86
2022/03/08 12:35:21;;;;;;;7.25;3.50;;;25.40;22.30;;;;;;5073337;28;20115;-86
2022/03/08 12:37:55;;;;;;;6.07;3.22;;;26.20;21.60;;;;;;5072162;28;20032;-86
2022/03/08 12:40:27;;;;;;;6.72;3.92;;;26.90;20.90;;;;;;5073056;28;20035;-86
2022/03/08 12:43:18;;;;;;;8.07;3.67;;;27.30;20.40;;;;;;5073174;28;20027;-87
2022/03/08 12:45:48;;;;;;;6.13;3.85;;;27.70;19.90;;;;;;5068594;28;20044;-86
2022/03/08 12:48:15;;;;;;;8.65;4.80;;;27.90;19.70;;;;;;5072955;28;20120;-86
2022/03/08 12:50:56;;;;;;;6.93;3.95;;;28.50;19.40;;;;;;5074343;28;20173;-86
2022/03/08 12:53:25;;;;;;;6.25;3.63;;;28.80;18.80;;;;;;5053368;28;20021;-85
2022/03/08 12:55:56;;;;;;;10.55;4.28;;;28.70;18.90;;;;;;5055516;28;20036;-84
2022/03/08 12:58:27;;;;;;;5.10;3.40;;;28.70;18.70;;;;;;5074162;28;20118;-85
2022/03/08 13:00:57;;;;;;;7.90;3.53;;;28.50;18.50;;;;;;5073781;28;20072;-85